Time;durP1;ratioP1;P1;durP2;ratioP2;P2;SDS_P1;SDS_P2;PMS_P1;PMS_P2;Temp;Humidity;BMP_temperature;BMP_pressure;BME280_temperature;BME280_humidity;BME280_pressure;Samples;Min_cycle;Max_cycle;Signal;HPM_P1;HPM_P2
2022/09/22 03:03:46;;;;;;;6.95;3.72;;;;;;;10.09;59.42;101871.28;5118348;23;20406;-74
2022/09/22 03:06:13;;;;;;;5.25;3.30;;;;;;;10.09;59.27;101873.13;4988018;28;20046;-73
2022/09/22 03:08:40;;;;;;;9.95;4.32;;;;;;;10.08;59.23;101866.91;4990285;28;20058;-73
2022/09/22 03:11:06;;;;;;;7.68;5.03;;;;;;;10.09;59.08;101868.59;4968200;28;20081;-74
2022/09/22 03:13:33;;;;;;;6.15;3.85;;;;;;;9.98;59.31;101874.88;4970455;28;20050;-73
2022/09/22 03:15:59;;;;;;;7.93;3.45;;;;;;;9.98;59.45;101868.66;4971664;28;20054;-73
2022/09/22 03:18:26;;;;;;;6.85;3.45;;;;;;;9.95;59.39;101875.13;4970733;28;20043;-75
2022/09/22 03:20:52;;;;;;;6.03;3.92;;;;;;;9.93;59.71;101866.38;4985095;28;20066;-75
2022/09/22 03:23:19;;;;;;;5.65;3.20;;;;;;;9.96;59.57;101859.91;4989970;28;20051;-74
2022/09/22 03:25:45;;;;;;;6.32;3.53;;;;;;;9.96;59.44;101868.81;4990549;28;20050;-73
2022/09/22 03:28:11;;;;;;;9.93;4.40;;;;;;;10.03;59.38;101870.00;4989317;28;20051;-75
2022/09/22 03:30:39;;;;;;;6.05;3.65;;;;;;;10.08;58.94;101872.28;4991209;28;20043;-75
2022/09/22 03:33:05;;;;;;;6.30;3.80;;;;;;;10.00;59.24;101870.25;4992064;28;20484;-74
2022/09/22 03:35:32;;;;;;;6.35;4.00;;;;;;;10.02;59.10;101864.75;4993350;28;20046;-70
2022/09/22 03:37:58;;;;;;;8.95;4.28;;;;;;;9.94;59.22;101869.91;4994559;28;20412;-73
2022/09/22 03:40:25;;;;;;;7.57;3.75;;;;;;;9.95;58.92;101867.09;4992707;28;20057;-73
2022/09/22 03:42:51;;;;;;;5.18;3.53;;;;;;;9.91;59.07;101865.63;4993582;28;20053;-73
2022/09/22 03:45:18;;;;;;;12.45;4.10;;;;;;;9.87;59.21;101871.41;4993530;28;20057;-75
2022/09/22 03:47:45;;;;;;;7.05;3.92;;;;;;;9.83;59.25;101873.47;4994099;28;20474;-74
2022/09/22 03:50:12;;;;;;;9.95;4.18;;;;;;;9.83;59.09;101868.13;4993547;28;20054;-74
2022/09/22 03:52:41;;;;;;;7.20;3.88;;;;;;;9.80;59.27;101865.69;4990505;28;20163;-74
2022/09/22 03:55:09;;;;;;;9.13;3.92;;;;;;;9.64;59.68;101863.41;4992855;28;20089;-74
2022/09/22 03:57:35;;;;;;;7.18;3.78;;;;;;;9.82;59.39;101862.88;4991846;28;20050;-73
2022/09/22 04:00:04;;;;;;;6.22;4.30;;;;;;;9.80;59.29;101857.66;4994107;28;20367;-71
2022/09/22 04:02:30;;;;;;;9.45;4.00;;;;;;;9.76;59.52;101862.41;4994258;28;20053;-75
2022/09/22 04:04:57;;;;;;;11.55;4.13;;;;;;;9.97;58.85;101862.44;4993438;28;20552;-74
2022/09/22 04:07:23;;;;;;;7.50;3.72;;;;;;;9.94;58.91;101854.66;4993031;28;20395;-74
2022/09/22 04:09:50;;;;;;;7.90;3.97;;;;;;;9.95;58.89;101853.69;4993327;28;20065;-74
2022/09/22 04:12:16;;;;;;;8.52;4.38;;;;;;;9.85;59.04;101854.56;4975843;28;20054;-74
2022/09/22 04:14:42;;;;;;;4.82;3.53;;;;;;;9.70;59.42;101851.34;4973623;28;20046;-75
2022/09/22 04:17:10;;;;;;;6.95;4.03;;;;;;;9.62;59.82;101848.47;4973533;28;20054;-74
2022/09/22 04:19:36;;;;;;;6.97;4.10;;;;;;;9.58;60.02;101858.59;4973899;28;20043;-73
2022/09/22 04:22:03;;;;;;;5.60;3.83;;;;;;;9.61;59.69;101854.78;4973821;28;20444;-71
2022/09/22 04:24:29;;;;;;;9.77;3.85;;;;;;;9.54;59.81;101852.63;4974382;28;20050;-73
2022/09/22 04:26:56;;;;;;;7.70;4.45;;;;;;;9.50;59.98;101853.81;4974181;28;20483;-73
2022/09/22 04:29:42;;;;;;;8.52;3.95;;;;;;;9.41;59.93;101851.06;4972421;28;20043;-75
2022/09/22 04:32:09;;;;;;;9.32;3.83;;;;;;;9.37;60.26;101850.47;4972995;28;20058;-75
2022/09/22 04:34:35;;;;;;;9.20;3.78;;;;;;;9.30;60.11;101857.28;4972784;28;20150;-73
2022/09/22 04:37:02;;;;;;;8.63;3.80;;;;;;;9.27;60.39;101845.00;4973748;28;20046;-74
2022/09/22 04:39:28;;;;;;;6.38;4.22;;;;;;;9.23;60.53;101848.00;4972163;28;20046;-74
2022/09/22 04:41:55;;;;;;;4.85;3.45;;;;;;;9.24;60.35;101847.09;4955761;28;20081;-73
2022/09/22 04:44:22;;;;;;;12.77;4.07;;;;;;;9.25;60.48;101846.94;4973372;28;20494;-74
2022/09/22 04:46:49;;;;;;;12.60;3.60;;;;;;;9.24;60.56;101849.75;4973079;28;20055;-74
2022/09/22 04:49:16;;;;;;;21.73;3.83;;;;;;;9.30;60.28;101850.13;4972138;28;20047;-73
2022/09/22 04:51:42;;;;;;;7.35;4.50;;;;;;;9.24;60.35;101857.78;4973155;28;20047;-75
2022/09/22 04:54:09;;;;;;;12.93;3.80;;;;;;;9.27;60.57;101860.22;4973183;28;20055;-75
2022/09/22 04:56:36;;;;;;;9.18;4.10;;;;;;;9.24;60.42;101857.78;4972723;28;20050;-74
2022/09/22 04:59:02;;;;;;;9.15;3.60;;;;;;;9.26;60.40;101854.00;4973258;28;20046;-73
2022/09/22 05:01:29;;;;;;;7.00;3.72;;;;;;;9.27;60.39;101865.59;4972913;28;20045;-73
2022/09/22 05:03:55;;;;;;;6.88;4.00;;;;;;;9.25;60.36;101859.50;4971769;28;20069;-74
2022/09/22 05:06:22;;;;;;;8.55;4.00;;;;;;;9.25;60.38;101859.50;4972095;28;20062;-74
2022/09/22 05:08:48;;;;;;;7.15;4.15;;;;;;;9.21;60.50;101855.31;4973061;28;20461;-73
2022/09/22 05:11:15;;;;;;;7.80;4.47;;;;;;;9.27;60.17;101861.06;4980222;28;20057;-74
2022/09/22 05:13:41;;;;;;;11.23;5.13;;;;;;;9.24;60.29;101860.47;4974573;28;20046;-74
2022/09/22 05:16:08;;;;;;;7.15;4.72;;;;;;;9.25;60.34;101859.50;4991657;28;20054;-73
2022/09/22 05:18:34;;;;;;;7.90;4.30;;;;;;;9.22;60.16;101862.38;4991101;28;20050;-74
2022/09/22 05:21:01;;;;;;;7.25;4.40;;;;;;;9.23;60.19;101862.28;4991710;28;20054;-73
2022/09/22 05:23:28;;;;;;;27.20;5.57;;;;;;;9.22;60.32;101865.06;4991457;28;20494;-74
2022/09/22 05:25:54;;;;;;;21.88;5.75;;;;;;;9.22;60.14;101870.41;4990614;28;20042;-74
2022/09/22 05:28:21;;;;;;;11.55;5.15;;;;;;;9.19;60.23;101868.81;4991917;28;20060;-75
2022/09/22 05:30:50;;;;;;;19.90;5.28;;;;;;;9.22;60.15;101873.09;4991455;28;20108;-75
2022/09/22 05:33:17;;;;;;;14.68;5.07;;;;;;;9.23;60.10;101870.31;4973605;28;20130;-73
2022/09/22 05:35:43;;;;;;;18.05;5.30;;;;;;;9.26;59.94;101875.41;4991268;28;20417;-74
2022/09/22 05:38:10;;;;;;;14.77;4.75;;;;;;;9.25;60.01;101867.53;4991841;28;20050;-73
2022/09/22 05:40:36;;;;;;;17.10;5.22;;;;;;;9.24;60.20;101873.84;4992318;28;20042;-73
2022/09/22 05:43:03;;;;;;;13.30;4.93;;;;;;;9.30;60.00;101870.66;4991060;28;20046;-74
2022/09/22 05:45:29;;;;;;;11.48;4.68;;;;;;;9.34;60.03;101876.66;4991604;28;20054;-74
2022/09/22 05:47:56;;;;;;;26.40;5.82;;;;;;;9.35;59.96;101873.84;4992026;28;20042;-72
2022/09/22 05:50:22;;;;;;;15.27;5.20;;;;;;;9.35;60.18;101879.19;4989889;28;20054;-74
2022/09/22 05:52:49;;;;;;;15.00;5.95;;;;;;;9.39;60.15;101883.31;4991932;28;20047;-74
2022/09/22 05:55:16;;;;;;;19.55;6.63;;;;;;;9.42;60.08;101877.72;4989668;28;20054;-73
2022/09/22 05:57:42;;;;;;;16.75;7.10;;;;;;;9.41;59.93;101878.72;4990495;28;20047;-75
2022/09/22 06:00:10;;;;;;;11.25;5.65;;;;;;;9.48;59.97;101879.91;4991058;28;20413;-74
2022/09/22 06:02:37;;;;;;;12.27;5.75;;;;;;;9.54;60.05;101879.41;4990478;28;20042;-75
2022/09/22 06:05:04;;;;;;;11.38;5.25;;;;;;;9.59;60.10;101875.50;4991186;28;20047;-76
2022/09/22 06:07:30;;;;;;;11.73;4.90;;;;;;;9.69;59.85;101881.81;4990910;28;20470;-73
2022/09/22 06:09:57;;;;;;;10.48;4.32;;;;;;;9.71;60.06;101882.53;4990632;28;20068;-73
2022/09/22 06:12:23;;;;;;;12.07;5.03;;;;;;;9.89;59.69;101885.50;4973606;28;20057;-73
2022/09/22 06:14:50;;;;;;;8.35;4.82;;;;;;;9.92;59.65;101883.41;4971168;28;20042;-74
2022/09/22 06:17:16;;;;;;;10.00;5.25;;;;;;;9.98;59.58;101882.91;4970991;28;20055;-73
2022/09/22 06:19:48;;;;;;;14.68;4.28;;;;;;;9.97;58.94;101883.06;4971058;28;20067;-73
2022/09/22 06:22:16;;;;;;;9.98;4.10;;;;;;;10.37;58.42;101885.88;4970698;28;20150;-73
2022/09/22 06:24:43;;;;;;;8.07;3.60;;;;;;;10.62;57.69;101890.06;4970994;28;20054;-74
2022/09/22 06:27:10;;;;;;;9.07;4.05;;;;;;;10.67;57.17;101895.88;4971214;28;20051;-73
2022/09/22 06:29:36;;;;;;;11.75;3.53;;;;;;;10.78;56.85;101889.56;4971160;28;20050;-72
2022/09/22 06:32:09;;;;;;;6.97;3.25;;;;;;;10.59;56.89;101897.53;4971669;28;20050;-73
2022/09/22 06:34:36;;;;;;;12.43;3.72;;;;;;;11.18;55.38;101895.00;4970165;28;20450;-73
2022/09/22 06:37:07;;;;;;;13.30;4.22;;;;;;;11.62;54.26;101897.38;4971678;28;20050;-73
2022/09/22 06:39:36;;;;;;;11.45;3.72;;;;;;;11.90;53.13;101891.25;4970435;28;20062;-73
2022/09/22 06:42:04;;;;;;;11.68;4.13;;;;;;;12.35;52.29;101893.34;4970181;28;20050;-74
2022/09/22 06:44:31;;;;;;;6.07;3.30;;;;;;;12.78;51.36;101892.03;4971828;28;20053;-73
2022/09/22 06:46:57;;;;;;;10.77;3.88;;;;;;;13.33;50.06;101891.25;4970332;28;20402;-72
2022/09/22 06:49:25;;;;;;;6.97;3.50;;;;;;;13.69;48.74;101889.44;4970993;28;20070;-73
2022/09/22 06:51:51;;;;;;;8.65;3.15;;;;;;;13.93;48.22;101890.72;4971021;28;20074;-73
2022/09/22 06:54:18;;;;;;;5.70;2.80;;;;;;;13.98;47.09;101896.53;4970642;28;20057;-73
2022/09/22 06:56:48;;;;;;;8.60;2.95;;;;;;;13.40;47.80;101892.34;4971450;28;20043;-73
2022/09/22 06:59:15;;;;;;;9.27;3.10;;;;;;;13.56;47.87;101887.13;4970194;28;20063;-73
2022/09/22 07:01:43;;;;;;;7.43;2.80;;;;;;;13.61;47.64;101889.38;4970468;28;20077;-72
2022/09/22 07:04:11;;;;;;;4.43;2.60;;;;;;;13.34;47.92;101890.22;4970536;28;20429;-72
2022/09/22 07:06:38;;;;;;;5.65;2.50;;;;;;;14.19;46.77;101893.53;4974157;28;20054;-73
2022/09/22 07:09:06;;;;;;;6.45;2.72;;;;;;;15.00;44.56;101901.38;4975023;28;20483;-72
2022/09/22 07:11:33;;;;;;;6.82;2.88;;;;;;;15.66;43.46;101897.94;4986253;28;20050;-73
2022/09/22 07:14:05;;;;;;;4.07;2.53;;;;;;;15.82;42.68;101899.00;4993503;28;20038;-71
2022/09/22 07:16:31;;;;;;;5.68;2.65;;;;;;;16.06;42.09;101899.03;4995231;28;20402;-74
2022/09/22 07:18:58;;;;;;;6.70;2.95;;;;;;;15.52;43.31;101897.69;4994219;28;20406;-73
2022/09/22 07:21:28;;;;;;;8.75;2.78;;;;;;;16.08;42.09;101897.00;4993912;28;20081;-72
2022/09/22 07:23:56;;;;;;;7.53;2.50;;;;;;;16.72;40.91;101894.47;4993797;28;20050;-73
2022/09/22 07:26:31;;;;;;;8.93;2.63;;;;;;;16.45;41.08;101892.94;4994446;28;20050;-74
2022/09/22 07:29:00;;;;;;;5.40;2.53;;;;;;;16.97;40.48;101895.25;4993852;28;20133;-72
2022/09/22 07:31:29;;;;;;;7.35;2.80;;;;;;;17.26;39.38;101899.19;4993702;28;20046;-72
2022/09/22 07:33:58;;;;;;;9.05;2.72;;;;;;;16.42;41.00;101904.13;4983917;28;20168;-74
2022/09/22 07:36:27;;;;;;;6.25;2.70;;;;;;;17.00;40.29;101892.19;4994329;28;20057;-73
2022/09/22 07:38:56;;;;;;;5.80;2.53;;;;;;;17.00;40.17;101892.19;4994143;28;20050;-72
2022/09/22 07:41:28;;;;;;;7.22;2.38;;;;;;;16.71;40.06;101890.03;4993688;28;20050;-73
2022/09/22 07:46:43;;;;;;;6.93;2.47;;;;;;;18.28;37.69;101889.97;4993810;28;20046;-73
2022/09/22 07:49:09;;;;;;;6.32;2.20;;;;;;;18.85;36.51;101887.72;4989192;28;20054;-72
2022/09/22 07:51:37;;;;;;;5.45;2.33;;;;;;;19.06;35.67;101893.28;4994836;28;20050;-74
2022/09/22 07:54:06;;;;;;;11.70;2.35;;;;;;;19.14;35.77;101892.34;4994614;28;20054;-74
2022/09/22 07:56:35;;;;;;;5.50;2.30;;;;;;;19.37;35.32;101893.06;4992508;28;20038;-73
2022/09/22 07:59:03;;;;;;;6.07;2.60;;;;;;;19.99;34.12;101893.59;4992675;28;20054;-74
2022/09/22 08:01:31;;;;;;;5.88;1.58;;;;;;;17.65;36.54;101888.38;4988729;28;20137;-73
2022/09/22 08:03:59;;;;;;;6.35;1.52;;;;;;;19.79;34.61;101894.19;4992892;28;20050;-73
2022/09/22 08:06:27;;;;;;;4.85;1.65;;;;;;;19.63;34.41;101898.00;4994069;28;20561;-74
2022/09/22 08:08:56;;;;;;;8.73;1.70;;;;;;;20.16;33.38;101898.56;4993615;28;20050;-74
2022/09/22 08:11:25;;;;;;;3.20;1.67;;;;;;;20.71;33.02;101904.28;4984719;28;20137;-74
2022/09/22 08:13:54;;;;;;;4.72;1.38;;;;;;;20.57;32.99;101897.91;4975101;28;20055;-75
2022/09/22 08:16:22;;;;;;;2.90;1.50;;;;;;;20.16;33.74;101897.72;4975676;28;20057;-75
2022/09/22 08:18:53;;;;;;;8.23;1.67;;;;;;;19.79;33.58;101896.09;4975253;28;20050;-74
2022/09/22 08:21:20;;;;;;;3.57;1.70;;;;;;;20.17;33.23;101894.78;4975331;28;20046;-75
2022/09/22 08:23:50;;;;;;;4.00;1.23;;;;;;;20.49;32.54;101899.91;4975224;28;20134;-74
2022/09/22 08:26:16;;;;;;;4.35;1.67;;;;;;;20.55;32.92;101893.69;4975985;28;20105;-75
2022/09/22 08:28:43;;;;;;;8.40;1.65;;;;;;;21.12;31.91;101895.34;4979844;28;20047;-75
2022/09/22 08:31:12;;;;;;;12.52;1.60;;;;;;;20.63;32.14;101897.13;4980812;28;20050;-75
2022/09/22 08:33:39;;;;;;;5.82;1.65;;;;;;;20.80;32.08;101894.06;4977762;28;20046;-75
2022/09/22 08:36:06;;;;;;;2.53;1.30;;;;;;;21.16;31.27;101893.88;4979918;28;20065;-74
2022/09/22 08:38:33;;;;;;;3.60;1.33;;;;;;;21.60;30.88;101889.88;4975068;28;20050;-74
2022/09/22 08:41:14;;;;;;;5.18;1.33;;;;;;;21.73;30.58;101898.09;4977807;28;20511;-75
2022/09/22 08:43:46;;;;;;;3.60;1.50;;;;;;;22.06;30.15;101911.03;4969824;28;20148;-74
2022/09/22 08:46:13;;;;;;;2.55;1.00;;;;;;;21.34;31.14;101907.00;4978085;28;20123;-71
2022/09/22 08:51:51;;;;;;;3.03;1.25;;;;;;;20.17;32.31;101911.13;4981767;28;20043;-74
2022/09/22 08:54:26;;;;;;;1.92;0.85;;;;;;;20.79;30.87;101900.56;4980804;28;20046;-74
2022/09/22 08:56:57;;;;;;;2.05;0.90;;;;;;;19.76;31.77;101905.47;4983917;28;20046;-73
2022/09/22 08:59:46;;;;;;;5.53;1.35;;;;;;;19.52;32.27;101905.78;4982845;28;20046;-76
2022/09/22 09:02:21;;;;;;;1.63;0.80;;;;;;;18.76;32.17;101892.41;4982007;28;20110;-76
2022/09/22 09:05:01;;;;;;;1.20;0.68;;;;;;;18.31;31.96;101900.47;4977335;28;20126;-75
2022/09/22 09:07:42;;;;;;;4.28;0.80;;;;;;;18.27;32.76;101898.28;4975885;28;20062;-75
2022/09/22 09:10:25;;;;;;;1.37;0.80;;;;;;;18.26;33.94;101908.31;4973767;28;20077;-76
2022/09/22 09:13:01;;;;;;;13.38;0.93;;;;;;;18.54;33.49;101902.28;4953037;29;20039;-75
2022/09/22 09:15:35;;;;;;;2.65;0.70;;;;;;;18.35;33.09;101900.97;4954264;29;20058;-77
2022/09/22 09:18:09;;;;;;;2.17;0.88;;;;;;;19.83;32.07;101902.81;4954453;29;20059;-75
2022/09/22 09:20:43;;;;;;;3.10;0.90;;;;;;;19.85;32.46;101892.59;4953103;29;20070;-76
2022/09/22 09:23:19;;;;;;;5.28;0.80;;;;;;;21.13;29.91;101891.56;4954369;28;20859;-76
2022/09/22 09:25:51;;;;;;;2.40;0.82;;;;;;;21.29;28.70;101887.66;4953938;29;20106;-75
2022/09/22 09:28:31;;;;;;;3.17;0.90;;;;;;;21.67;28.55;101888.00;4953589;28;20050;-76
2022/09/22 09:31:15;;;;;;;1.73;0.70;;;;;;;21.99;28.73;101883.69;4953297;28;20298;-74
2022/09/22 09:33:42;;;;;;;4.28;0.85;;;;;;;22.12;27.59;101885.59;4952758;29;20055;-76
2022/09/22 09:36:15;;;;;;;4.18;1.10;;;;;;;23.07;26.56;101885.28;4954567;28;20527;-76
2022/09/22 09:38:51;;;;;;;1.92;0.95;;;;;;;22.18;27.35;101884.75;4954135;28;20052;-75
2022/09/22 09:41:23;;;;;;;2.00;0.80;;;;;;;22.02;27.66;101879.69;4953474;29;20098;-75
2022/09/22 09:43:54;;;;;;;;;;;;;;;20.11;30.15;101892.03;4953420;28;20778;-75
2022/09/22 09:46:30;;;;;;;4.93;0.88;;;;;;;19.42;31.05;101885.19;4953259;28;19922;-76
2022/09/22 09:48:59;;;;;;;6.68;0.93;;;;;;;18.63;32.24;101884.91;4952158;28;20043;-74
2022/09/22 09:51:27;;;;;;;6.75;1.23;;;;;;;18.05;33.61;101881.81;4952315;28;20040;-74
2022/09/22 09:53:56;;;;;;;6.20;1.20;;;;;;;18.68;32.32;101881.59;4952829;28;20055;-76
2022/09/22 09:56:22;;;;;;;5.03;1.58;;;;;;;19.96;30.28;101881.19;4935618;29;20047;-72
2022/09/22 10:01:49;;;;;;;3.33;0.93;;;;;;;21.41;28.07;101877.00;4951527;28;20051;-74
2022/09/22 10:04:36;;;;;;;1.83;0.70;;;;;;;22.15;27.13;101882.44;4942488;28;20043;-74
2022/09/22 10:07:15;;;;;;;2.00;0.75;;;;;;;22.24;26.58;101886.63;4951550;29;20051;-75
2022/09/22 10:09:42;;;;;;;4.00;0.80;;;;;;;22.84;25.61;101875.66;4951953;29;20051;-74
2022/09/22 10:12:27;;;;;;;4.47;0.80;;;;;;;21.69;26.59;101877.69;4964983;28;20498;-74
2022/09/22 10:14:57;;;;;;;3.22;0.85;;;;;;;20.24;29.12;101873.06;4990526;28;20046;-74
2022/09/22 10:17:48;;;;;;;5.18;1.00;;;;;;;20.65;28.44;101873.19;4990493;28;20046;-74
2022/09/22 10:20:15;;;;;;;3.85;0.93;;;;;;;20.64;28.72;101882.44;4989603;28;20397;-74
2022/09/22 10:22:42;;;;;;;2.70;0.63;;;;;;;20.90;27.95;101876.31;4990566;28;20054;-74
2022/09/22 10:25:20;;;;;;;3.17;0.90;;;;;;;21.59;27.22;101867.16;4989701;28;20057;-74
2022/09/22 10:28:12;;;;;;;2.13;0.70;;;;;;;21.06;26.66;101874.28;4990897;28;20042;-75
2022/09/22 10:30:41;;;;;;;2.47;0.90;;;;;;;21.04;26.75;101870.91;4989761;28;20077;-75
2022/09/22 10:33:19;;;;;;;2.80;0.80;;;;;;;19.96;28.26;101871.13;4989307;28;20520;-74
2022/09/22 10:35:53;;;;;;;2.72;0.70;;;;;;;19.36;29.32;101869.63;4990005;28;20072;-75
2022/09/22 10:38:22;;;;;;;2.45;0.80;;;;;;;19.85;28.55;101866.22;4990759;28;20402;-74
2022/09/22 10:41:13;;;;;;;3.20;0.80;;;;;;;20.00;28.02;101873.47;4990210;28;20042;-74
2022/09/22 10:44:01;;;;;;;1.55;0.90;;;;;;;20.71;27.46;101866.13;4989454;28;20371;-74
2022/09/22 10:47:12;;;;;;;3.28;0.60;;;;;;;20.62;27.71;101872.75;4990180;28;20050;-74
2022/09/22 10:49:45;;;;;;;2.83;0.60;;;;;;;19.31;28.66;101873.94;4989248;28;20050;-75
2022/09/22 10:52:24;;;;;;;3.58;0.63;;;;;;;19.08;28.92;101872.19;4990240;28;20394;-74
2022/09/22 10:54:50;;;;;;;2.70;0.80;;;;;;;18.40;29.45;101879.50;4990586;28;20046;-74
2022/09/22 10:57:26;;;;;;;1.63;0.70;;;;;;;17.30;31.61;101876.13;4990071;28;20053;-75
2022/09/22 11:00:22;;;;;;;1.02;0.60;;;;;;;16.95;32.44;101872.03;4981049;28;20050;-75
2022/09/22 11:03:06;;;;;;;4.97;0.68;;;;;;;17.45;32.05;101870.84;4990111;28;20042;-75
2022/09/22 11:12:17;;;;;;;2.95;0.80;;;;;;;17.19;31.89;101860.25;4978764;28;20399;-75
2022/09/22 11:14:50;;;;;;;1.83;0.70;;;;;;;16.83;32.49;101861.56;4971460;28;20054;-74
2022/09/22 11:17:45;;;;;;;1.98;0.80;;;;;;;16.27;33.53;101857.09;4971959;28;20046;-74
2022/09/22 11:20:27;;;;;;;3.42;0.70;;;;;;;16.28;33.93;101851.47;4971252;28;20491;-76
2022/09/22 11:23:03;;;;;;;2.22;0.70;;;;;;;16.84;32.97;101851.56;4971042;28;20050;-73
2022/09/22 11:25:49;;;;;;;3.60;0.80;;;;;;;18.49;30.65;101853.94;4971299;28;20067;-75
2022/09/22 11:28:21;;;;;;;3.03;0.70;;;;;;;20.19;28.28;101848.28;4972091;28;20043;-75
2022/09/22 11:30:53;;;;;;;2.30;1.00;;;;;;;21.11;26.98;101845.41;4971136;28;20074;-74
2022/09/22 11:33:31;;;;;;;;;;;;;;;21.30;25.87;101842.94;4965413;28;20047;-74
2022/09/22 11:36:07;;;;;;;2.38;0.93;;;;;;;21.16;25.94;101835.75;4970588;28;19922;-75
2022/09/22 11:38:48;;;;;;;3.00;0.57;;;;;;;23.38;23.41;101838.03;4970188;28;20053;-76
2022/09/22 11:41:36;;;;;;;5.97;1.10;;;;;;;22.88;23.59;101835.03;4970814;28;20050;-74
2022/09/22 11:44:02;;;;;;;2.97;0.80;;;;;;;24.42;21.98;101832.03;4970350;28;20062;-75
2022/09/22 11:46:47;;;;;;;1.20;0.60;;;;;;;23.87;22.38;101828.25;4971896;28;20388;-75
2022/09/22 11:49:40;;;;;;;2.28;0.70;;;;;;;24.27;21.68;101831.50;4971385;28;20077;-75
2022/09/22 11:52:25;;;;;;;3.65;0.82;;;;;;;25.23;20.74;101827.31;4971351;28;20051;-75
2022/09/22 11:55:17;;;;;;;1.60;0.80;;;;;;;25.61;20.54;101816.03;4975207;28;20368;-76
2022/09/22 11:57:50;;;;;;;8.60;1.42;;;;;;;25.81;20.89;101821.22;4973231;28;20051;-75
2022/09/22 12:00:19;;;;;;;8.90;0.90;;;;;;;26.54;19.14;101819.97;4975499;28;20049;-76
2022/09/22 12:02:55;;;;;;;2.45;0.85;;;;;;;27.32;18.48;101817.81;4974649;28;20430;-75
2022/09/22 12:05:43;;;;;;;4.57;1.27;;;;;;;27.17;18.23;101811.94;4973473;28;20043;-76
2022/09/22 12:08:13;;;;;;;1.95;0.80;;;;;;;25.80;19.18;101804.97;4971675;28;20054;-75
2022/09/22 12:10:43;;;;;;;3.85;0.50;;;;;;;25.00;19.96;101797.84;4977474;28;20486;-75
2022/09/22 12:13:14;;;;;;;6.43;0.80;;;;;;;25.07;20.27;101793.09;4993845;28;20060;-75
2022/09/22 12:15:48;;;;;;;3.05;1.00;;;;;;;22.80;22.91;101795.91;4993170;28;20053;-75
2022/09/22 12:18:21;;;;;;;7.30;0.85;;;;;;;23.16;22.88;101793.72;4993227;28;20160;-74
2022/09/22 12:21:01;;;;;;;5.30;1.00;;;;;;;22.68;23.41;101789.44;4993280;28;20101;-75
2022/09/22 12:23:43;;;;;;;4.43;0.90;;;;;;;22.68;23.02;101783.13;4993491;28;20041;-75
2022/09/22 12:26:26;;;;;;;1.25;0.65;;;;;;;21.94;23.46;101784.25;4993478;28;20073;-75
2022/09/22 12:28:53;;;;;;;4.65;0.70;;;;;;;21.98;24.13;101780.03;4991380;28;20053;-75
2022/09/22 12:31:20;;;;;;;5.55;2.00;;;;;;;22.83;22.56;101782.88;4993988;28;20062;-75
2022/09/22 12:33:50;;;;;;;7.72;1.05;;;;;;;23.31;22.58;101775.09;4993008;28;20125;-75
2022/09/22 12:36:27;;;;;;;2.55;0.80;;;;;;;25.74;20.33;101767.44;4993308;28;20050;-76
2022/09/22 12:39:16;;;;;;;3.42;0.70;;;;;;;26.00;19.08;101772.50;4992938;28;20486;-76
2022/09/22 12:41:51;;;;;;;1.70;1.08;;;;;;;24.90;20.62;101765.41;4993408;28;20350;-75
2022/09/22 12:44:20;;;;;;;5.53;1.33;;;;;;;25.11;19.88;101764.13;4993362;28;20050;-76
2022/09/22 12:46:49;;;;;;;3.92;1.10;;;;;;;25.04;19.97;101763.38;4992464;28;20470;-75
2022/09/22 12:49:20;;;;;;;3.25;0.70;;;;;;;26.55;19.07;101765.75;4991893;28;20046;-75
2022/09/22 12:51:46;;;;;;;3.38;2.50;;;;;;;27.20;17.81;101759.94;4992518;28;20046;-74
2022/09/22 12:54:22;;;;;;;2.17;0.93;;;;;;;27.40;17.50;101764.22;4992634;28;20050;-74
2022/09/22 12:57:02;;;;;;;3.92;0.75;;;;;;;27.45;17.79;101759.63;4982833;28;20038;-76
2022/09/22 12:59:34;;;;;;;1.60;0.70;;;;;;;26.17;18.67;101760.75;4992371;28;20161;-75
2022/09/22 13:02:30;;;;;;;1.30;1.10;;;;;;;26.12;18.83;101755.16;4991480;28;20112;-75
2022/09/22 13:04:57;;;;;;;1.70;0.80;;;;;;;23.53;21.37;101756.38;4982722;28;20042;-73
2022/09/22 13:07:42;;;;;;;1.67;0.70;;;;;;;21.56;24.01;101765.72;4991415;28;20042;-73
2022/09/22 13:10:23;;;;;;;7.05;2.47;;;;;;;20.58;25.48;101763.25;4991285;28;20061;-74
2022/09/22 13:13:04;;;;;;;;;;;;;;;19.39;27.30;101771.28;4953671;28;20047;-74
2022/09/22 13:15:48;;;;;;;8.60;1.43;;;;;;;19.32;27.80;101767.63;4953232;29;19923;-75
2022/09/22 13:18:36;;;;;;;4.28;1.63;;;;;;;18.36;29.50;101766.78;4944718;28;20306;-75
2022/09/22 13:21:11;;;;;;;3.10;1.38;;;;;;;18.42;29.42;101771.50;4953170;28;20130;-74
2022/09/22 13:23:50;;;;;;;4.82;0.88;;;;;;;18.24;29.29;101769.13;4953510;28;20043;-75
2022/09/22 13:26:30;;;;;;;2.72;1.00;;;;;;;17.85;30.06;101774.72;4953408;28;20051;-75
2022/09/22 13:29:17;;;;;;;3.05;0.70;;;;;;;17.38;30.15;101762.22;4954129;29;20083;-75
2022/09/22 13:31:53;;;;;;;7.32;1.98;;;;;;;17.46;29.97;101762.16;4953710;29;20051;-75
2022/09/22 13:34:19;;;;;;;3.72;1.27;;;;;;;17.26;30.52;101759.00;4952592;29;20399;-75
2022/09/22 13:36:46;;;;;;;4.93;0.93;;;;;;;17.42;30.19;101763.53;4953361;28;20145;-75
2022/09/22 13:39:16;;;;;;;2.22;0.75;;;;;;;17.31;30.23;101750.38;4953378;29;20095;-74
2022/09/22 13:42:03;;;;;;;5.03;1.00;;;;;;;17.09;30.30;101747.44;4953605;28;20058;-75
2022/09/22 13:44:33;;;;;;;2.05;0.70;;;;;;;16.20;31.85;101740.50;4953615;28;20138;-73
2022/09/22 13:47:05;;;;;;;3.47;0.70;;;;;;;15.62;32.07;101749.63;4953475;28;20069;-74
2022/09/22 13:49:50;;;;;;;2.42;0.75;;;;;;;15.90;31.82;101742.88;4953388;28;20051;-75
2022/09/22 13:52:23;;;;;;;3.35;0.90;;;;;;;16.32;31.30;101743.66;4952320;28;20051;-75
2022/09/22 13:54:56;;;;;;;3.90;0.88;;;;;;;16.18;32.04;101737.09;4952157;29;20419;-75
2022/09/22 13:57:29;;;;;;;5.45;0.80;;;;;;;16.34;31.74;101731.66;4952923;29;20062;-75
2022/09/22 13:59:58;;;;;;;2.45;0.80;;;;;;;16.33;31.64;101734.50;4952945;28;20384;-75
2022/09/22 14:02:27;;;;;;;1.38;0.60;;;;;;;15.71;32.17;101732.44;4952452;28;20054;-74
2022/09/22 14:05:07;;;;;;;4.70;2.55;;;;;;;15.71;32.42;101725.16;4952560;29;20043;-75
2022/09/22 14:07:36;;;;;;;2.17;1.20;;;;;;;16.16;32.08;101723.75;4952764;29;20047;-70
2022/09/22 14:10:26;;;;;;;2.78;1.10;;;;;;;16.39;32.08;101728.41;4954794;28;20047;-74
2022/09/22 14:12:53;;;;;;;5.05;1.77;;;;;;;16.09;32.26;101722.75;4991054;28;20042;-75
2022/09/22 14:15:38;;;;;;;5.75;3.03;;;;;;;16.34;32.05;101726.22;4989910;28;20057;-75
2022/09/22 14:18:21;;;;;;;6.55;3.75;;;;;;;16.38;32.04;101727.56;4991717;28;20132;-74
2022/09/22 14:20:48;;;;;;;6.60;3.92;;;;;;;15.99;32.72;101732.91;4991863;28;20409;-73
2022/09/22 14:23:21;;;;;;;12.50;3.28;;;;;;;15.79;32.44;101726.16;4991789;28;20262;-75
2022/09/22 14:25:47;;;;;;;4.88;2.75;;;;;;;15.99;32.64;101722.09;4981580;28;20497;-74
2022/09/22 14:28:22;;;;;;;2.20;1.27;;;;;;;15.55;33.29;101721.56;4991427;28;20053;-74
2022/09/22 14:30:49;;;;;;;7.03;3.45;;;;;;;15.44;33.39;101720.06;4990791;28;20380;-74
2022/09/22 14:33:24;;;;;;;7.97;2.30;;;;;;;15.47;32.70;101712.44;4991272;28;20164;-75
2022/09/22 14:35:59;;;;;;;4.00;2.00;;;;;;;15.56;32.69;101717.84;4990848;28;20058;-74
2022/09/22 14:38:28;;;;;;;6.85;2.92;;;;;;;15.64;33.25;101713.31;4991278;28;20120;-76
2022/09/22 14:40:58;;;;;;;6.57;2.97;;;;;;;15.74;32.53;101712.28;4990986;28;20046;-74
2022/09/22 14:43:36;;;;;;;2.38;1.45;;;;;;;15.46;32.85;101716.16;4990069;28;20050;-75
2022/09/22 14:46:20;;;;;;;4.10;1.27;;;;;;;15.53;33.13;101710.06;4991214;28;20053;-76
2022/09/22 14:48:47;;;;;;;5.70;1.25;;;;;;;15.20;33.38;101710.06;4990990;28;20044;-74
2022/09/22 14:51:19;;;;;;;1.45;0.85;;;;;;;15.34;33.21;101708.56;4990765;28;20057;-74
2022/09/22 14:53:50;;;;;;;3.78;0.90;;;;;;;15.37;32.68;101709.06;4990917;28;20054;-74
2022/09/22 14:56:26;;;;;;;3.40;1.63;;;;;;;15.51;32.79;101710.25;4990454;28;20054;-74
2022/09/22 15:04:47;;;;;;;3.33;1.65;;;;;;;16.01;32.39;101701.09;4991674;28;20046;-74
2022/09/22 15:07:28;;;;;;;4.88;1.25;;;;;;;15.82;31.90;101696.91;4991092;28;20050;-73
2022/09/22 15:09:58;;;;;;;3.67;1.48;;;;;;;15.92;32.26;101696.72;4990054;28;20073;-76
2022/09/22 15:12:35;;;;;;;2.92;1.33;;;;;;;16.07;32.13;101703.13;4973561;28;20066;-75